sensor_id;sensor_type;location;lat;lon;timestamp;P1;durP1;ratioP1;P2;durP2;ratioP2
2388;SDS011;1205;47.984;7.668;2023-09-07T00:00:47;7.30;;;6.47;;
2388;SDS011;1205;47.984;7.668;2023-09-07T00:03:13;8.07;;;7.27;;
2388;SDS011;1205;47.984;7.668;2023-09-07T00:05:39;10.00;;;7.43;;
2388;SDS011;1205;47.984;7.668;2023-09-07T00:08:05;7.57;;;6.90;;
2388;SDS011;1205;47.984;7.668;2023-09-07T00:10:32;8.60;;;7.70;;
2388;SDS011;1205;47.984;7.668;2023-09-07T00:13:00;9.77;;;6.37;;
2388;SDS011;1205;47.984;7.668;2023-09-07T00:15:27;14.53;;;7.20;;
2388;SDS011;1205;47.984;7.668;2023-09-07T00:17:53;8.23;;;6.50;;
2388;SDS011;1205;47.984;7.668;2023-09-07T00:20:19;6.63;;;6.10;;
2388;SDS011;1205;47.984;7.668;2023-09-07T00:22:46;6.70;;;5.90;;
2388;SDS011;1205;47.984;7.668;2023-09-07T00:25:12;7.13;;;6.53;;
2388;SDS011;1205;47.984;7.668;2023-09-07T00:27:38;8.33;;;5.80;;
2388;SDS011;1205;47.984;7.668;2023-09-07T00:30:04;7.50;;;6.10;;
2388;SDS011;1205;47.984;7.668;2023-09-07T00:32:32;8.13;;;6.00;;
2388;SDS011;1205;47.984;7.668;2023-09-07T00:34:58;7.90;;;6.40;;
2388;SDS011;1205;47.984;7.668;2023-09-07T00:37:24;6.77;;;6.10;;
2388;SDS011;1205;47.984;7.668;2023-09-07T00:39:49;7.60;;;6.90;;
2388;SDS011;1205;47.984;7.668;2023-09-07T00:42:15;7.60;;;6.77;;
2388;SDS011;1205;47.984;7.668;2023-09-07T00:44:41;11.23;;;6.80;;
2388;SDS011;1205;47.984;7.668;2023-09-07T00:47:06;6.87;;;6.33;;
2388;SDS011;1205;47.984;7.668;2023-09-07T00:49:32;6.87;;;6.27;;
2388;SDS011;1205;47.984;7.668;2023-09-07T00:51:57;9.27;;;6.27;;
2388;SDS011;1205;47.984;7.668;2023-09-07T00:54:23;13.40;;;8.07;;
2388;SDS011;1205;47.984;7.668;2023-09-07T00:56:49;8.17;;;7.40;;
2388;SDS011;1205;47.984;7.668;2023-09-07T00:59:14;14.13;;;7.57;;
2388;SDS011;1205;47.984;7.668;2023-09-07T01:01:40;8.47;;;7.67;;
2388;SDS011;1205;47.984;7.668;2023-09-07T01:04:08;9.33;;;7.03;;
2388;SDS011;1205;47.984;7.668;2023-09-07T01:06:36;7.63;;;6.93;;
2388;SDS011;1205;47.984;7.668;2023-09-07T01:09:14;9.30;;;8.40;;
2388;SDS011;1205;47.984;7.668;2023-09-07T01:11:44;7.70;;;6.90;;
2388;SDS011;1205;47.984;7.668;2023-09-07T01:14:09;8.33;;;7.47;;
2388;SDS011;1205;47.984;7.668;2023-09-07T01:16:35;11.90;;;7.53;;
2388;SDS011;1205;47.984;7.668;2023-09-07T01:19:03;11.50;;;7.70;;
2388;SDS011;1205;47.984;7.668;2023-09-07T01:21:33;9.00;;;7.77;;
2388;SDS011;1205;47.984;7.668;2023-09-07T01:24:00;8.97;;;7.97;;
2388;SDS011;1205;47.984;7.668;2023-09-07T01:26:27;8.17;;;7.30;;
2388;SDS011;1205;47.984;7.668;2023-09-07T01:28:53;6.73;;;6.07;;
2388;SDS011;1205;47.984;7.668;2023-09-07T01:31:18;6.73;;;6.13;;
2388;SDS011;1205;47.984;7.668;2023-09-07T01:33:44;6.53;;;6.03;;
2388;SDS011;1205;47.984;7.668;2023-09-07T01:36:10;8.77;;;6.50;;
2388;SDS011;1205;47.984;7.668;2023-09-07T01:38:35;16.07;;;7.47;;
2388;SDS011;1205;47.984;7.668;2023-09-07T01:41:01;7.37;;;6.77;;
2388;SDS011;1205;47.984;7.668;2023-09-07T01:43:26;8.57;;;7.40;;
2388;SDS011;1205;47.984;7.668;2023-09-07T01:45:52;8.20;;;7.07;;
2388;SDS011;1205;47.984;7.668;2023-09-07T01:48:17;7.47;;;6.70;;
2388;SDS011;1205;47.984;7.668;2023-09-07T01:50:43;10.00;;;6.80;;
2388;SDS011;1205;47.984;7.668;2023-09-07T01:53:08;7.60;;;6.90;;
2388;SDS011;1205;47.984;7.668;2023-09-07T01:55:34;8.10;;;7.30;;
2388;SDS011;1205;47.984;7.668;2023-09-07T01:58:00;13.03;;;6.70;;
2388;SDS011;1205;47.984;7.668;2023-09-07T02:00:25;10.10;;;7.30;;
2388;SDS011;1205;47.984;7.668;2023-09-07T02:02:51;11.50;;;7.03;;
2388;SDS011;1205;47.984;7.668;2023-09-07T02:05:16;10.80;;;6.33;;
2388;SDS011;1205;47.984;7.668;2023-09-07T02:07:43;9.17;;;7.30;;
2388;SDS011;1205;47.984;7.668;2023-09-07T02:10:08;8.00;;;7.30;;
2388;SDS011;1205;47.984;7.668;2023-09-07T02:12:34;12.33;;;6.40;;
2388;SDS011;1205;47.984;7.668;2023-09-07T02:15:01;10.50;;;6.93;;
2388;SDS011;1205;47.984;7.668;2023-09-07T02:17:28;8.87;;;7.17;;
2388;SDS011;1205;47.984;7.668;2023-09-07T02:19:53;11.00;;;6.30;;
2388;SDS011;1205;47.984;7.668;2023-09-07T02:22:19;9.73;;;7.40;;
2388;SDS011;1205;47.984;7.668;2023-09-07T02:24:45;10.00;;;6.70;;
2388;SDS011;1205;47.984;7.668;2023-09-07T02:27:10;7.47;;;6.73;;
2388;SDS011;1205;47.984;7.668;2023-09-07T02:29:36;9.60;;;6.40;;
2388;SDS011;1205;47.984;7.668;2023-09-07T02:32:02;7.83;;;7.07;;
2388;SDS011;1205;47.984;7.668;2023-09-07T02:34:28;9.20;;;7.43;;
2388;SDS011;1205;47.984;7.668;2023-09-07T02:36:54;9.43;;;6.70;;
2388;SDS011;1205;47.984;7.668;2023-09-07T02:39:22;10.77;;;6.73;;
2388;SDS011;1205;47.984;7.668;2023-09-07T02:41:51;7.47;;;6.67;;
2388;SDS011;1205;47.984;7.668;2023-09-07T02:44:17;9.00;;;6.50;;
2388;SDS011;1205;47.984;7.668;2023-09-07T02:46:42;12.33;;;6.77;;
2388;SDS011;1205;47.984;7.668;2023-09-07T02:49:08;8.13;;;7.30;;
2388;SDS011;1205;47.984;7.668;2023-09-07T02:51:33;7.70;;;6.70;;
2388;SDS011;1205;47.984;7.668;2023-09-07T02:54:00;9.73;;;6.53;;
2388;SDS011;1205;47.984;7.668;2023-09-07T02:56:27;10.87;;;6.37;;
2388;SDS011;1205;47.984;7.668;2023-09-07T02:58:53;7.73;;;6.90;;
2388;SDS011;1205;47.984;7.668;2023-09-07T03:01:18;6.10;;;5.60;;
2388;SDS011;1205;47.984;7.668;2023-09-07T03:03:45;8.50;;;5.73;;
2388;SDS011;1205;47.984;7.668;2023-09-07T03:06:12;7.23;;;6.33;;
2388;SDS011;1205;47.984;7.668;2023-09-07T03:08:41;7.47;;;6.50;;
2388;SDS011;1205;47.984;7.668;2023-09-07T03:11:08;7.50;;;6.80;;
2388;SDS011;1205;47.984;7.668;2023-09-07T03:13:34;10.37;;;6.90;;
2388;SDS011;1205;47.984;7.668;2023-09-07T03:16:01;8.77;;;6.90;;
2388;SDS011;1205;47.984;7.668;2023-09-07T03:18:28;18.63;;;7.20;;
2388;SDS011;1205;47.984;7.668;2023-09-07T03:20:54;12.27;;;6.87;;
2388;SDS011;1205;47.984;7.668;2023-09-07T03:23:21;17.07;;;7.57;;
2388;SDS011;1205;47.984;7.668;2023-09-07T03:25:47;12.70;;;6.70;;
2388;SDS011;1205;47.984;7.668;2023-09-07T03:28:13;10.53;;;7.30;;
2388;SDS011;1205;47.984;7.668;2023-09-07T03:30:39;8.97;;;7.03;;
2388;SDS011;1205;47.984;7.668;2023-09-07T03:33:05;7.63;;;5.97;;
2388;SDS011;1205;47.984;7.668;2023-09-07T03:35:31;8.70;;;6.97;;
2388;SDS011;1205;47.984;7.668;2023-09-07T03:37:56;9.50;;;6.57;;
2388;SDS011;1205;47.984;7.668;2023-09-07T03:40:22;8.00;;;6.33;;
2388;SDS011;1205;47.984;7.668;2023-09-07T03:42:48;7.30;;;5.80;;
2388;SDS011;1205;47.984;7.668;2023-09-07T03:45:14;7.13;;;6.50;;
2388;SDS011;1205;47.984;7.668;2023-09-07T03:47:39;7.40;;;6.70;;
2388;SDS011;1205;47.984;7.668;2023-09-07T03:50:05;9.63;;;7.53;;
2388;SDS011;1205;47.984;7.668;2023-09-07T03:52:31;8.83;;;7.23;;
2388;SDS011;1205;47.984;7.668;2023-09-07T03:54:57;8.50;;;6.63;;
2388;SDS011;1205;47.984;7.668;2023-09-07T03:57:23;11.83;;;7.27;;
2388;SDS011;1205;47.984;7.668;2023-09-07T03:59:50;11.37;;;7.10;;
2388;SDS011;1205;47.984;7.668;2023-09-07T04:02:15;7.97;;;6.97;;
2388;SDS011;1205;47.984;7.668;2023-09-07T04:04:48;11.20;;;7.17;;
2388;SDS011;1205;47.984;7.668;2023-09-07T04:07:14;6.90;;;6.30;;
2388;SDS011;1205;47.984;7.668;2023-09-07T04:09:40;6.70;;;6.10;;
2388;SDS011;1205;47.984;7.668;2023-09-07T04:12:05;9.83;;;6.23;;
2388;SDS011;1205;47.984;7.668;2023-09-07T04:14:32;7.50;;;6.50;;
2388;SDS011;1205;47.984;7.668;2023-09-07T04:16:57;10.03;;;6.40;;
2388;SDS011;1205;47.984;7.668;2023-09-07T04:19:23;11.90;;;7.27;;
2388;SDS011;1205;47.984;7.668;2023-09-07T04:21:49;6.40;;;5.80;;
2388;SDS011;1205;47.984;7.668;2023-09-07T04:24:14;11.90;;;6.90;;
2388;SDS011;1205;47.984;7.668;2023-09-07T04:26:40;7.27;;;6.63;;
2388;SDS011;1205;47.984;7.668;2023-09-07T04:29:06;7.27;;;6.60;;
2388;SDS011;1205;47.984;7.668;2023-09-07T04:31:33;12.40;;;6.60;;
2388;SDS011;1205;47.984;7.668;2023-09-07T04:33:58;14.67;;;6.50;;
2388;SDS011;1205;47.984;7.668;2023-09-07T04:36:24;7.10;;;6.00;;
2388;SDS011;1205;47.984;7.668;2023-09-07T04:38:50;7.00;;;6.40;;
2388;SDS011;1205;47.984;7.668;2023-09-07T04:41:16;7.50;;;5.83;;
2388;SDS011;1205;47.984;7.668;2023-09-07T04:43:42;12.60;;;8.03;;
2388;SDS011;1205;47.984;7.668;2023-09-07T04:46:08;8.40;;;7.50;;
2388;SDS011;1205;47.984;7.668;2023-09-07T04:48:34;11.63;;;7.23;;
2388;SDS011;1205;47.984;7.668;2023-09-07T04:51:04;7.50;;;6.70;;
2388;SDS011;1205;47.984;7.668;2023-09-07T04:53:31;8.27;;;6.70;;
2388;SDS011;1205;47.984;7.668;2023-09-07T04:55:58;9.37;;;7.70;;
2388;SDS011;1205;47.984;7.668;2023-09-07T04:58:24;7.43;;;6.60;;
2388;SDS011;1205;47.984;7.668;2023-09-07T05:00:50;19.23;;;8.07;;
2388;SDS011;1205;47.984;7.668;2023-09-07T05:03:16;9.37;;;7.57;;
2388;SDS011;1205;47.984;7.668;2023-09-07T05:05:42;12.43;;;6.50;;
2388;SDS011;1205;47.984;7.668;2023-09-07T05:08:11;10.17;;;7.80;;
2388;SDS011;1205;47.984;7.668;2023-09-07T05:10:37;9.77;;;7.40;;
2388;SDS011;1205;47.984;7.668;2023-09-07T05:13:03;7.60;;;6.20;;
2388;SDS011;1205;47.984;7.668;2023-09-07T05:15:29;9.83;;;7.10;;
2388;SDS011;1205;47.984;7.668;2023-09-07T05:17:55;7.73;;;6.53;;
2388;SDS011;1205;47.984;7.668;2023-09-07T05:20:21;7.93;;;6.37;;
2388;SDS011;1205;47.984;7.668;2023-09-07T05:22:46;8.67;;;6.87;;
2388;SDS011;1205;47.984;7.668;2023-09-07T05:25:12;9.87;;;6.67;;
2388;SDS011;1205;47.984;7.668;2023-09-07T05:27:38;8.27;;;6.40;;
2388;SDS011;1205;47.984;7.668;2023-09-07T05:30:04;6.97;;;6.30;;
2388;SDS011;1205;47.984;7.668;2023-09-07T05:32:31;6.50;;;5.90;;
2388;SDS011;1205;47.984;7.668;2023-09-07T05:34:56;7.77;;;6.53;;
2388;SDS011;1205;47.984;7.668;2023-09-07T05:37:22;7.10;;;6.40;;
2388;SDS011;1205;47.984;7.668;2023-09-07T05:39:47;6.70;;;6.10;;
2388;SDS011;1205;47.984;7.668;2023-09-07T05:42:13;7.33;;;6.33;;
2388;SDS011;1205;47.984;7.668;2023-09-07T05:44:39;6.73;;;5.90;;
2388;SDS011;1205;47.984;7.668;2023-09-07T05:47:05;7.83;;;5.80;;
2388;SDS011;1205;47.984;7.668;2023-09-07T05:49:31;8.00;;;5.83;;
2388;SDS011;1205;47.984;7.668;2023-09-07T05:51:56;8.30;;;6.30;;
2388;SDS011;1205;47.984;7.668;2023-09-07T05:54:22;7.80;;;5.47;;
2388;SDS011;1205;47.984;7.668;2023-09-07T05:56:48;9.73;;;5.87;;
2388;SDS011;1205;47.984;7.668;2023-09-07T05:59:13;8.50;;;5.57;;
2388;SDS011;1205;47.984;7.668;2023-09-07T06:01:39;6.60;;;5.17;;
2388;SDS011;1205;47.984;7.668;2023-09-07T06:04:05;11.83;;;6.20;;
2388;SDS011;1205;47.984;7.668;2023-09-07T06:06:31;9.43;;;5.53;;
2388;SDS011;1205;47.984;7.668;2023-09-07T06:08:57;6.50;;;5.80;;
2388;SDS011;1205;47.984;7.668;2023-09-07T06:11:25;7.30;;;6.60;;
2388;SDS011;1205;47.984;7.668;2023-09-07T06:13:51;7.90;;;7.10;;
2388;SDS011;1205;47.984;7.668;2023-09-07T06:16:16;8.40;;;6.43;;
2388;SDS011;1205;47.984;7.668;2023-09-07T06:18:42;7.30;;;6.60;;
2388;SDS011;1205;47.984;7.668;2023-09-07T06:21:08;8.40;;;6.53;;
2388;SDS011;1205;47.984;7.668;2023-09-07T06:23:34;7.17;;;6.57;;
2388;SDS011;1205;47.984;7.668;2023-09-07T06:26:00;8.03;;;6.80;;
2388;SDS011;1205;47.984;7.668;2023-09-07T06:28:26;10.30;;;7.80;;
2388;SDS011;1205;47.984;7.668;2023-09-07T06:30:52;12.80;;;7.30;;
2388;SDS011;1205;47.984;7.668;2023-09-07T06:33:17;8.33;;;7.50;;
2388;SDS011;1205;47.984;7.668;2023-09-07T06:35:43;9.40;;;8.50;;
2388;SDS011;1205;47.984;7.668;2023-09-07T06:38:09;9.20;;;8.40;;
2388;SDS011;1205;47.984;7.668;2023-09-07T06:40:34;8.43;;;7.63;;
2388;SDS011;1205;47.984;7.668;2023-09-07T06:43:00;8.87;;;7.97;;
2388;SDS011;1205;47.984;7.668;2023-09-07T06:45:30;9.40;;;8.60;;
2388;SDS011;1205;47.984;7.668;2023-09-07T06:48:04;18.73;;;8.83;;
2388;SDS011;1205;47.984;7.668;2023-09-07T06:50:30;10.40;;;8.17;;
2388;SDS011;1205;47.984;7.668;2023-09-07T06:52:55;9.20;;;8.30;;
2388;SDS011;1205;47.984;7.668;2023-09-07T06:55:21;11.60;;;9.60;;
2388;SDS011;1205;47.984;7.668;2023-09-07T06:57:46;10.10;;;9.10;;
2388;SDS011;1205;47.984;7.668;2023-09-07T07:00:12;12.30;;;10.17;;
2388;SDS011;1205;47.984;7.668;2023-09-07T07:02:38;10.50;;;8.50;;
2388;SDS011;1205;47.984;7.668;2023-09-07T07:05:04;14.00;;;8.63;;
2388;SDS011;1205;47.984;7.668;2023-09-07T07:07:30;9.77;;;8.80;;
2388;SDS011;1205;47.984;7.668;2023-09-07T07:09:55;11.67;;;8.60;;
2388;SDS011;1205;47.984;7.668;2023-09-07T07:12:21;11.57;;;8.20;;
2388;SDS011;1205;47.984;7.668;2023-09-07T07:14:47;7.53;;;6.90;;
2388;SDS011;1205;47.984;7.668;2023-09-07T07:17:12;16.67;;;9.47;;
2388;SDS011;1205;47.984;7.668;2023-09-07T07:19:38;11.50;;;8.50;;
2388;SDS011;1205;47.984;7.668;2023-09-07T07:22:03;11.50;;;9.33;;
2388;SDS011;1205;47.984;7.668;2023-09-07T07:24:29;9.70;;;8.70;;
2388;SDS011;1205;47.984;7.668;2023-09-07T07:26:54;9.53;;;8.20;;
2388;SDS011;1205;47.984;7.668;2023-09-07T07:29:20;10.27;;;8.97;;
2388;SDS011;1205;47.984;7.668;2023-09-07T07:31:45;11.50;;;7.93;;
2388;SDS011;1205;47.984;7.668;2023-09-07T07:34:12;10.23;;;7.57;;
2388;SDS011;1205;47.984;7.668;2023-09-07T07:36:37;11.70;;;8.50;;
2388;SDS011;1205;47.984;7.668;2023-09-07T07:39:03;13.83;;;8.63;;
2388;SDS011;1205;47.984;7.668;2023-09-07T07:41:31;10.97;;;8.60;;
2388;SDS011;1205;47.984;7.668;2023-09-07T07:43:57;9.07;;;8.17;;
2388;SDS011;1205;47.984;7.668;2023-09-07T07:46:23;9.57;;;8.43;;
2388;SDS011;1205;47.984;7.668;2023-09-07T07:48:49;8.73;;;7.80;;
2388;SDS011;1205;47.984;7.668;2023-09-07T07:51:14;14.03;;;8.87;;
2388;SDS011;1205;47.984;7.668;2023-09-07T07:53:40;9.53;;;8.73;;
2388;SDS011;1205;47.984;7.668;2023-09-07T07:56:06;13.53;;;7.87;;
2388;SDS011;1205;47.984;7.668;2023-09-07T07:58:39;14.00;;;7.50;;
2388;SDS011;1205;47.984;7.668;2023-09-07T08:01:13;10.90;;;8.57;;
2388;SDS011;1205;47.984;7.668;2023-09-07T08:03:42;15.23;;;9.60;;
2388;SDS011;1205;47.984;7.668;2023-09-07T08:06:08;17.27;;;11.53;;
2388;SDS011;1205;47.984;7.668;2023-09-07T08:08:35;11.60;;;10.00;;
2388;SDS011;1205;47.984;7.668;2023-09-07T08:11:01;13.20;;;8.93;;
2388;SDS011;1205;47.984;7.668;2023-09-07T08:13:30;11.90;;;9.80;;
2388;SDS011;1205;47.984;7.668;2023-09-07T08:16:00;11.03;;;9.27;;
2388;SDS011;1205;47.984;7.668;2023-09-07T08:18:26;13.57;;;10.10;;
2388;SDS011;1205;47.984;7.668;2023-09-07T08:20:53;12.60;;;8.70;;
2388;SDS011;1205;47.984;7.668;2023-09-07T08:23:20;15.80;;;10.53;;
2388;SDS011;1205;47.984;7.668;2023-09-07T08:25:48;13.37;;;9.80;;
2388;SDS011;1205;47.984;7.668;2023-09-07T08:28:16;16.27;;;10.10;;
2388;SDS011;1205;47.984;7.668;2023-09-07T08:30:43;10.10;;;9.10;;
2388;SDS011;1205;47.984;7.668;2023-09-07T08:33:09;13.43;;;10.30;;
2388;SDS011;1205;47.984;7.668;2023-09-07T08:35:34;17.93;;;11.07;;
2388;SDS011;1205;47.984;7.668;2023-09-07T08:38:01;16.50;;;9.90;;
2388;SDS011;1205;47.984;7.668;2023-09-07T08:40:29;12.40;;;9.53;;
2388;SDS011;1205;47.984;7.668;2023-09-07T08:42:57;10.13;;;8.87;;
2388;SDS011;1205;47.984;7.668;2023-09-07T08:45:27;14.63;;;10.07;;
2388;SDS011;1205;47.984;7.668;2023-09-07T08:47:56;21.33;;;9.57;;
2388;SDS011;1205;47.984;7.668;2023-09-07T08:50:23;10.30;;;8.70;;
2388;SDS011;1205;47.984;7.668;2023-09-07T08:52:50;9.77;;;8.73;;
2388;SDS011;1205;47.984;7.668;2023-09-07T08:55:17;17.50;;;9.60;;
2388;SDS011;1205;47.984;7.668;2023-09-07T08:57:43;13.20;;;9.10;;
2388;SDS011;1205;47.984;7.668;2023-09-07T09:00:08;12.40;;;7.60;;
2388;SDS011;1205;47.984;7.668;2023-09-07T09:02:40;10.10;;;8.90;;
2388;SDS011;1205;47.984;7.668;2023-09-07T09:05:06;8.17;;;7.37;;
2388;SDS011;1205;47.984;7.668;2023-09-07T09:07:35;13.77;;;8.93;;
2388;SDS011;1205;47.984;7.668;2023-09-07T09:10:05;14.57;;;9.37;;
2388;SDS011;1205;47.984;7.668;2023-09-07T09:12:34;10.80;;;8.23;;
2388;SDS011;1205;47.984;7.668;2023-09-07T09:15:00;9.47;;;7.93;;
2388;SDS011;1205;47.984;7.668;2023-09-07T09:17:29;12.60;;;8.47;;
2388;SDS011;1205;47.984;7.668;2023-09-07T09:19:55;12.63;;;7.97;;
2388;SDS011;1205;47.984;7.668;2023-09-07T09:22:20;9.07;;;7.43;;
2388;SDS011;1205;47.984;7.668;2023-09-07T09:24:49;15.03;;;7.70;;
2388;SDS011;1205;47.984;7.668;2023-09-07T09:27:14;9.63;;;7.83;;
2388;SDS011;1205;47.984;7.668;2023-09-07T09:29:41;11.97;;;8.33;;
2388;SDS011;1205;47.984;7.668;2023-09-07T09:32:06;9.40;;;8.20;;
2388;SDS011;1205;47.984;7.668;2023-09-07T09:34:35;9.50;;;8.20;;
2388;SDS011;1205;47.984;7.668;2023-09-07T09:37:02;6.93;;;6.33;;
2388;SDS011;1205;47.984;7.668;2023-09-07T09:39:29;11.10;;;7.60;;
2388;SDS011;1205;47.984;7.668;2023-09-07T09:41:55;8.40;;;7.60;;
2388;SDS011;1205;47.984;7.668;2023-09-07T09:44:22;9.33;;;7.60;;
2388;SDS011;1205;47.984;7.668;2023-09-07T09:46:52;9.87;;;7.67;;
2388;SDS011;1205;47.984;7.668;2023-09-07T09:49:21;6.97;;;6.27;;
2388;SDS011;1205;47.984;7.668;2023-09-07T09:51:48;9.03;;;7.40;;
2388;SDS011;1205;47.984;7.668;2023-09-07T09:54:16;9.47;;;8.10;;
2388;SDS011;1205;47.984;7.668;2023-09-07T09:56:43;7.20;;;6.57;;
2388;SDS011;1205;47.984;7.668;2023-09-07T09:59:09;13.00;;;7.50;;
2388;SDS011;1205;47.984;7.668;2023-09-07T10:01:43;9.33;;;7.07;;
2388;SDS011;1205;47.984;7.668;2023-09-07T10:04:10;10.53;;;7.10;;
2388;SDS011;1205;47.984;7.668;2023-09-07T10:06:38;12.87;;;7.37;;
2388;SDS011;1205;47.984;7.668;2023-09-07T10:09:07;9.23;;;6.97;;
2388;SDS011;1205;47.984;7.668;2023-09-07T10:11:36;10.50;;;8.07;;
2388;SDS011;1205;47.984;7.668;2023-09-07T10:14:02;14.70;;;6.33;;
2388;SDS011;1205;47.984;7.668;2023-09-07T10:16:40;12.77;;;6.27;;
2388;SDS011;1205;47.984;7.668;2023-09-07T10:19:20;10.20;;;7.40;;
2388;SDS011;1205;47.984;7.668;2023-09-07T10:21:47;10.27;;;6.43;;
2388;SDS011;1205;47.984;7.668;2023-09-07T10:24:26;6.63;;;6.03;;
2388;SDS011;1205;47.984;7.668;2023-09-07T10:27:07;8.63;;;7.27;;
2388;SDS011;1205;47.984;7.668;2023-09-07T10:29:41;7.20;;;6.40;;
2388;SDS011;1205;47.984;7.668;2023-09-07T10:32:08;9.93;;;7.10;;
2388;SDS011;1205;47.984;7.668;2023-09-07T10:34:37;13.03;;;6.50;;
2388;SDS011;1205;47.984;7.668;2023-09-07T10:37:04;10.57;;;6.83;;
2388;SDS011;1205;47.984;7.668;2023-09-07T10:39:33;7.70;;;6.93;;
2388;SDS011;1205;47.984;7.668;2023-09-07T10:41:59;12.63;;;7.73;;
2388;SDS011;1205;47.984;7.668;2023-09-07T10:44:25;9.67;;;7.03;;
2388;SDS011;1205;47.984;7.668;2023-09-07T10:46:51;7.70;;;6.97;;
2388;SDS011;1205;47.984;7.668;2023-09-07T10:49:17;8.00;;;6.10;;
2388;SDS011;1205;47.984;7.668;2023-09-07T10:51:43;7.20;;;5.93;;
2388;SDS011;1205;47.984;7.668;2023-09-07T10:54:17;12.50;;;6.97;;
2388;SDS011;1205;47.984;7.668;2023-09-07T10:56:48;8.20;;;6.27;;
2388;SDS011;1205;47.984;7.668;2023-09-07T10:59:15;8.10;;;7.27;;
2388;SDS011;1205;47.984;7.668;2023-09-07T11:01:43;7.03;;;6.43;;
2388;SDS011;1205;47.984;7.668;2023-09-07T11:04:09;7.97;;;6.33;;
2388;SDS011;1205;47.984;7.668;2023-09-07T11:06:38;5.80;;;5.30;;
2388;SDS011;1205;47.984;7.668;2023-09-07T11:09:05;6.83;;;6.23;;
2388;SDS011;1205;47.984;7.668;2023-09-07T11:11:33;7.00;;;6.30;;
2388;SDS011;1205;47.984;7.668;2023-09-07T11:14:01;13.93;;;6.20;;
2388;SDS011;1205;47.984;7.668;2023-09-07T11:16:30;8.20;;;6.83;;
2388;SDS011;1205;47.984;7.668;2023-09-07T11:18:56;6.73;;;6.03;;
2388;SDS011;1205;47.984;7.668;2023-09-07T11:21:22;7.33;;;6.63;;
2388;SDS011;1205;47.984;7.668;2023-09-07T11:23:48;6.40;;;5.90;;
2388;SDS011;1205;47.984;7.668;2023-09-07T11:26:15;6.07;;;5.57;;
2388;SDS011;1205;47.984;7.668;2023-09-07T11:28:44;7.70;;;6.20;;
2388;SDS011;1205;47.984;7.668;2023-09-07T11:31:11;14.07;;;6.57;;
2388;SDS011;1205;47.984;7.668;2023-09-07T11:33:36;6.90;;;5.70;;
2388;SDS011;1205;47.984;7.668;2023-09-07T11:36:03;6.27;;;5.67;;
2388;SDS011;1205;47.984;7.668;2023-09-07T11:38:30;10.17;;;6.33;;
2388;SDS011;1205;47.984;7.668;2023-09-07T11:41:00;6.20;;;5.70;;
2388;SDS011;1205;47.984;7.668;2023-09-07T11:43:26;8.67;;;5.77;;
2388;SDS011;1205;47.984;7.668;2023-09-07T11:45:51;12.00;;;5.67;;
2388;SDS011;1205;47.984;7.668;2023-09-07T11:48:17;9.40;;;6.70;;
2388;SDS011;1205;47.984;7.668;2023-09-07T11:50:43;9.47;;;6.00;;
2388;SDS011;1205;47.984;7.668;2023-09-07T11:53:08;7.20;;;5.80;;
2388;SDS011;1205;47.984;7.668;2023-09-07T11:55:34;7.70;;;6.60;;
2388;SDS011;1205;47.984;7.668;2023-09-07T11:58:01;7.60;;;6.00;;
2388;SDS011;1205;47.984;7.668;2023-09-07T12:00:27;7.47;;;6.17;;
2388;SDS011;1205;47.984;7.668;2023-09-07T12:02:54;6.07;;;5.63;;
2388;SDS011;1205;47.984;7.668;2023-09-07T12:05:20;6.50;;;5.80;;
2388;SDS011;1205;47.984;7.668;2023-09-07T12:07:45;7.23;;;6.00;;
2388;SDS011;1205;47.984;7.668;2023-09-07T12:10:11;6.80;;;6.20;;
2388;SDS011;1205;47.984;7.668;2023-09-07T12:12:41;5.90;;;5.37;;
2388;SDS011;1205;47.984;7.668;2023-09-07T12:15:08;11.20;;;5.90;;
2388;SDS011;1205;47.984;7.668;2023-09-07T12:17:36;8.30;;;6.00;;
2388;SDS011;1205;47.984;7.668;2023-09-07T12:20:02;5.87;;;5.27;;
2388;SDS011;1205;47.984;7.668;2023-09-07T12:22:29;7.20;;;5.93;;
2388;SDS011;1205;47.984;7.668;2023-09-07T12:24:55;7.03;;;5.10;;
2388;SDS011;1205;47.984;7.668;2023-09-07T12:27:21;10.57;;;6.20;;
2388;SDS011;1205;47.984;7.668;2023-09-07T12:29:46;10.40;;;6.17;;
2388;SDS011;1205;47.984;7.668;2023-09-07T12:32:12;7.93;;;5.73;;
2388;SDS011;1205;47.984;7.668;2023-09-07T12:34:37;7.70;;;6.00;;
2388;SDS011;1205;47.984;7.668;2023-09-07T12:37:04;7.80;;;5.97;;
2388;SDS011;1205;47.984;7.668;2023-09-07T12:39:29;5.70;;;5.30;;
2388;SDS011;1205;47.984;7.668;2023-09-07T12:41:55;5.70;;;5.20;;
2388;SDS011;1205;47.984;7.668;2023-09-07T12:44:21;7.17;;;6.23;;
2388;SDS011;1205;47.984;7.668;2023-09-07T12:46:46;6.13;;;5.67;;
2388;SDS011;1205;47.984;7.668;2023-09-07T12:49:12;10.40;;;5.80;;
2388;SDS011;1205;47.984;7.668;2023-09-07T12:51:40;7.73;;;6.23;;
2388;SDS011;1205;47.984;7.668;2023-09-07T12:54:06;9.73;;;6.30;;
2388;SDS011;1205;47.984;7.668;2023-09-07T12:56:31;7.13;;;5.90;;
2388;SDS011;1205;47.984;7.668;2023-09-07T12:58:57;5.30;;;5.00;;
2388;SDS011;1205;47.984;7.668;2023-09-07T13:01:24;6.33;;;5.73;;
2388;SDS011;1205;47.984;7.668;2023-09-07T13:03:53;7.83;;;5.47;;
2388;SDS011;1205;47.984;7.668;2023-09-07T13:06:18;6.27;;;5.73;;
2388;SDS011;1205;47.984;7.668;2023-09-07T13:08:44;6.03;;;5.30;;
2388;SDS011;1205;47.984;7.668;2023-09-07T13:11:10;5.43;;;5.03;;
2388;SDS011;1205;47.984;7.668;2023-09-07T13:13:36;5.33;;;4.93;;
2388;SDS011;1205;47.984;7.668;2023-09-07T13:16:03;5.50;;;5.10;;
2388;SDS011;1205;47.984;7.668;2023-09-07T13:18:29;9.20;;;5.57;;
2388;SDS011;1205;47.984;7.668;2023-09-07T13:20:55;8.53;;;5.60;;
2388;SDS011;1205;47.984;7.668;2023-09-07T13:23:30;15.30;;;7.33;;
2388;SDS011;1205;47.984;7.668;2023-09-07T13:25:56;5.93;;;5.40;;
2388;SDS011;1205;47.984;7.668;2023-09-07T13:28:22;5.83;;;5.20;;
2388;SDS011;1205;47.984;7.668;2023-09-07T13:30:48;5.13;;;4.73;;
2388;SDS011;1205;47.984;7.668;2023-09-07T13:33:15;7.30;;;5.40;;
2388;SDS011;1205;47.984;7.668;2023-09-07T13:35:40;7.67;;;5.53;;
2388;SDS011;1205;47.984;7.668;2023-09-07T13:38:06;7.20;;;5.13;;
2388;SDS011;1205;47.984;7.668;2023-09-07T13:40:31;6.40;;;5.30;;
2388;SDS011;1205;47.984;7.668;2023-09-07T13:42:57;5.50;;;5.00;;
2388;SDS011;1205;47.984;7.668;2023-09-07T13:45:22;5.40;;;5.00;;
2388;SDS011;1205;47.984;7.668;2023-09-07T13:47:48;5.07;;;4.67;;
2388;SDS011;1205;47.984;7.668;2023-09-07T13:50:14;8.20;;;4.80;;
2388;SDS011;1205;47.984;7.668;2023-09-07T13:52:40;5.93;;;5.33;;
2388;SDS011;1205;47.984;7.668;2023-09-07T13:55:05;5.23;;;4.77;;
2388;SDS011;1205;47.984;7.668;2023-09-07T13:57:32;5.00;;;4.50;;
2388;SDS011;1205;47.984;7.668;2023-09-07T13:59:58;4.83;;;4.53;;
2388;SDS011;1205;47.984;7.668;2023-09-07T14:02:24;4.30;;;4.00;;
2388;SDS011;1205;47.984;7.668;2023-09-07T14:04:49;4.13;;;3.87;;
2388;SDS011;1205;47.984;7.668;2023-09-07T14:07:15;4.20;;;4.00;;
2388;SDS011;1205;47.984;7.668;2023-09-07T14:09:41;5.40;;;4.60;;
2388;SDS011;1205;47.984;7.668;2023-09-07T14:12:06;4.40;;;4.10;;
2388;SDS011;1205;47.984;7.668;2023-09-07T14:14:32;4.33;;;3.90;;
2388;SDS011;1205;47.984;7.668;2023-09-07T14:16:57;5.00;;;4.60;;
2388;SDS011;1205;47.984;7.668;2023-09-07T14:19:25;8.90;;;4.27;;
2388;SDS011;1205;47.984;7.668;2023-09-07T14:21:55;4.30;;;4.00;;
2388;SDS011;1205;47.984;7.668;2023-09-07T14:24:22;4.93;;;4.50;;
2388;SDS011;1205;47.984;7.668;2023-09-07T14:26:48;5.03;;;4.60;;
2388;SDS011;1205;47.984;7.668;2023-09-07T14:29:13;5.03;;;4.33;;
2388;SDS011;1205;47.984;7.668;2023-09-07T14:31:39;6.20;;;4.70;;
2388;SDS011;1205;47.984;7.668;2023-09-07T14:34:07;4.83;;;4.43;;
2388;SDS011;1205;47.984;7.668;2023-09-07T14:36:33;7.77;;;4.20;;
2388;SDS011;1205;47.984;7.668;2023-09-07T14:38:58;5.57;;;4.47;;
2388;SDS011;1205;47.984;7.668;2023-09-07T14:41:24;14.67;;;4.20;;
2388;SDS011;1205;47.984;7.668;2023-09-07T14:43:50;5.90;;;4.77;;
2388;SDS011;1205;47.984;7.668;2023-09-07T14:46:16;4.00;;;3.80;;
2388;SDS011;1205;47.984;7.668;2023-09-07T14:48:43;6.73;;;4.20;;
2388;SDS011;1205;47.984;7.668;2023-09-07T14:51:09;5.10;;;4.70;;
2388;SDS011;1205;47.984;7.668;2023-09-07T14:53:35;5.70;;;4.00;;
2388;SDS011;1205;47.984;7.668;2023-09-07T14:56:01;5.13;;;3.93;;
2388;SDS011;1205;47.984;7.668;2023-09-07T14:58:27;5.47;;;3.73;;
2388;SDS011;1205;47.984;7.668;2023-09-07T15:00:52;4.13;;;3.70;;
2388;SDS011;1205;47.984;7.668;2023-09-07T15:03:18;4.80;;;4.40;;
2388;SDS011;1205;47.984;7.668;2023-09-07T15:05:43;4.47;;;4.17;;